createdAt,value
2023-01-03T00:00:39.014Z,1.45
2023-01-03T00:03:06.681Z,1.05
2023-01-03T00:05:35.404Z,1.85
2023-01-03T00:08:04.488Z,1.05
2023-01-03T00:10:32.329Z,0.75
2023-01-03T00:13:00.182Z,0.70
2023-01-03T00:15:28.162Z,0.95
2023-01-03T00:17:56.508Z,1.60
2023-01-03T00:20:24.236Z,1.27
2023-01-03T00:22:51.963Z,1.40
2023-01-03T00:25:21.162Z,1.35
2023-01-03T00:27:48.976Z,2.90
2023-01-03T00:30:16.939Z,1.90
2023-01-03T00:32:44.662Z,1.80
2023-01-03T00:35:12.366Z,1.27
2023-01-03T00:37:40.148Z,0.80
2023-01-03T00:40:08.611Z,1.80
2023-01-03T00:42:58.330Z,1.60
2023-01-03T00:45:26.881Z,0.93
2023-01-03T00:47:55.734Z,1.42
2023-01-03T00:50:23.340Z,1.42
2023-01-03T00:52:50.894Z,0.80
2023-01-03T00:55:18.492Z,0.70
2023-01-03T00:57:47.363Z,0.98
2023-01-03T01:00:15.569Z,2.38
2023-01-03T01:02:43.402Z,0.80
2023-01-03T01:05:11.159Z,1.45
2023-01-03T01:07:38.697Z,1.15
2023-01-03T01:10:07.175Z,3.88
2023-01-03T01:12:34.916Z,2.53
2023-01-03T01:15:05.323Z,1.65
2023-01-03T01:17:34.067Z,1.27
2023-01-03T01:20:01.635Z,3.53
2023-01-03T01:22:29.242Z,4.38
2023-01-03T01:24:56.883Z,5.38
2023-01-03T01:27:24.494Z,5.95
2023-01-03T01:29:52.020Z,3.85
2023-01-03T01:32:21.541Z,3.63
2023-01-03T01:34:49.200Z,3.35
2023-01-03T01:37:16.769Z,2.15
2023-01-03T01:39:44.450Z,3.65
2023-01-03T01:42:31.901Z,1.55
2023-01-03T01:45:00.699Z,1.38
2023-01-03T01:47:37.364Z,0.85
2023-01-03T01:50:13.625Z,1.05
2023-01-03T01:52:46.259Z,2.85
2023-01-03T01:55:16.981Z,1.70
2023-01-03T01:57:45.705Z,3.05
2023-01-03T02:00:14.633Z,1.02
2023-01-03T02:02:50.428Z,0.93
2023-01-03T02:05:20.198Z,0.80
2023-01-03T02:07:50.479Z,1.35
2023-01-03T02:10:19.828Z,1.60
2023-01-03T02:13:10.083Z,1.15
2023-01-03T02:16:04.560Z,1.42
2023-01-03T02:18:47.239Z,0.90
2023-01-03T02:21:37.043Z,4.03
2023-01-03T02:24:31.153Z,0.98
2023-01-03T02:27:06.050Z,2.78
2023-01-03T02:30:05.585Z,2.70
2023-01-03T02:32:43.217Z,4.32
2023-01-03T02:35:19.876Z,3.88
2023-01-03T02:37:56.239Z,3.42
2023-01-03T02:40:30.139Z,2.53
2023-01-03T02:43:05.772Z,2.47
2023-01-03T02:45:49.970Z,3.95
2023-01-03T02:48:31.168Z,1.20
2023-01-03T02:51:01.719Z,1.63
2023-01-03T02:53:34.285Z,0.98
2023-01-03T02:56:07.208Z,2.37
2023-01-03T02:58:38.005Z,0.95
2023-01-03T03:01:08.302Z,2.45
2023-01-03T03:03:39.895Z,2.72
2023-01-03T03:06:15.158Z,4.43
2023-01-03T03:08:45.379Z,1.83
2023-01-03T03:11:27.752Z,2.35
2023-01-03T03:14:00.962Z,1.83
2023-01-03T03:16:50.217Z,4.88
2023-01-03T03:19:46.311Z,1.60
2023-01-03T03:22:41.413Z,2.22
2023-01-03T03:25:13.356Z,2.00
2023-01-03T03:28:01.766Z,1.58
2023-01-03T03:30:33.237Z,2.92
2023-01-03T03:33:06.128Z,1.90
2023-01-03T03:35:42.435Z,2.55
2023-01-03T03:38:15.040Z,2.72
2023-01-03T03:41:15.981Z,1.10
2023-01-03T03:44:06.834Z,1.05
2023-01-03T03:46:42.236Z,4.13
2023-01-03T03:49:31.671Z,5.38
2023-01-03T03:52:03.092Z,1.73
2023-01-03T03:54:35.249Z,2.80
2023-01-03T03:57:11.592Z,4.43
2023-01-03T03:59:42.494Z,2.70
2023-01-03T04:02:12.301Z,2.63
2023-01-03T04:04:45.446Z,2.67
2023-01-03T04:07:14.481Z,3.65
2023-01-03T04:09:42.146Z,2.83
2023-01-03T04:12:09.685Z,2.15
2023-01-03T04:14:37.239Z,2.95
2023-01-03T04:17:04.781Z,4.82
2023-01-03T04:19:32.308Z,3.38
2023-01-03T04:21:59.850Z,3.85
2023-01-03T04:24:28.732Z,3.05
2023-01-03T04:26:56.324Z,1.88
2023-01-03T04:29:23.938Z,1.83
2023-01-03T04:31:51.513Z,2.35
2023-01-03T04:34:19.133Z,6.75
2023-01-03T04:36:46.725Z,6.15
2023-01-03T04:39:14.496Z,1.25
2023-01-03T04:41:43.397Z,2.40
2023-01-03T04:44:11.086Z,2.78
2023-01-03T04:46:40.603Z,1.17
2023-01-03T04:49:10.575Z,3.25
2023-01-03T04:51:38.448Z,1.40
2023-01-03T04:54:07.332Z,1.75
2023-01-03T04:56:37.220Z,1.98
2023-01-03T04:59:06.851Z,2.92
2023-01-03T05:01:34.815Z,2.17
2023-01-03T05:04:02.904Z,2.88
2023-01-03T05:06:30.775Z,2.05
2023-01-03T05:08:58.371Z,2.03
2023-01-03T05:11:25.989Z,5.10
2023-01-03T05:13:53.492Z,1.92
2023-01-03T05:16:22.490Z,3.47
2023-01-03T05:18:53.226Z,1.73
2023-01-03T05:21:40.261Z,3.42
2023-01-03T05:24:28.669Z,3.55
2023-01-03T05:26:58.144Z,1.80
2023-01-03T05:29:26.826Z,2.28
2023-01-03T05:31:56.123Z,3.70
2023-01-03T05:34:23.754Z,3.17
2023-01-03T05:36:51.306Z,2.35
2023-01-03T05:39:18.854Z,3.38
2023-01-03T05:42:02.581Z,1.83
2023-01-03T05:44:32.456Z,2.65
2023-01-03T05:47:02.504Z,1.38
2023-01-03T05:49:30.174Z,2.67
2023-01-03T05:51:57.809Z,3.28
2023-01-03T05:54:25.820Z,3.10
2023-01-03T05:56:53.367Z,4.35
2023-01-03T05:59:22.604Z,5.35
2023-01-03T06:01:50.513Z,2.35
2023-01-03T06:04:20.506Z,3.45
2023-01-03T06:06:48.301Z,3.00
2023-01-03T06:09:15.959Z,2.05
2023-01-03T06:11:43.771Z,3.47
2023-01-03T06:14:11.585Z,2.80
2023-01-03T06:16:57.037Z,1.88
2023-01-03T06:19:26.392Z,2.03
2023-01-03T06:21:53.943Z,2.83
2023-01-03T06:24:21.495Z,4.53
2023-01-03T06:26:49.062Z,2.38
2023-01-03T06:29:16.855Z,2.85
2023-01-03T06:31:44.443Z,2.72
2023-01-03T06:34:12.060Z,2.25
2023-01-03T06:36:40.999Z,3.35
2023-01-03T06:39:08.712Z,7.45
2023-01-03T06:41:36.289Z,4.80
2023-01-03T06:44:03.850Z,3.17
2023-01-03T06:46:48.910Z,4.57
2023-01-03T06:49:35.899Z,3.47
2023-01-03T06:52:23.551Z,2.63
2023-01-03T06:54:51.315Z,2.20
2023-01-03T06:57:25.908Z,11.65
2023-01-03T06:59:54.809Z,4.88
2023-01-03T07:02:22.605Z,2.83
2023-01-03T07:04:50.343Z,6.82
2023-01-03T07:07:19.232Z,3.10
2023-01-03T07:09:46.756Z,2.40
2023-01-03T07:12:34.250Z,3.30
2023-01-03T07:15:01.814Z,5.80
2023-01-03T07:17:30.732Z,6.28
2023-01-03T07:19:58.290Z,4.50
2023-01-03T07:22:27.130Z,4.10
2023-01-03T07:24:54.737Z,4.03
2023-01-03T07:27:22.561Z,3.95
2023-01-03T07:29:50.312Z,4.78
2023-01-03T07:32:17.876Z,6.18
2023-01-03T07:34:45.450Z,2.50
2023-01-03T07:37:12.973Z,3.20
2023-01-03T07:39:41.869Z,4.25
2023-01-03T07:42:27.133Z,4.55
2023-01-03T07:44:55.602Z,4.20
2023-01-03T07:47:23.368Z,3.35
2023-01-03T07:49:50.881Z,4.95
2023-01-03T07:52:18.451Z,3.88
2023-01-03T07:54:47.365Z,4.13
2023-01-03T07:57:15.957Z,3.13
2023-01-03T07:59:43.474Z,3.47
2023-01-03T08:02:11.120Z,4.40
2023-01-03T08:04:38.827Z,3.20
2023-01-03T08:07:06.441Z,6.07
2023-01-03T08:09:51.566Z,8.20
2023-01-03T08:12:38.256Z,3.45
2023-01-03T08:15:06.938Z,4.90
2023-01-03T08:17:34.539Z,8.38
2023-01-03T08:20:02.091Z,3.83
2023-01-03T08:22:30.091Z,4.65
2023-01-03T08:24:57.696Z,5.75
2023-01-03T08:27:26.626Z,4.18
2023-01-03T08:29:54.216Z,5.80
2023-01-03T08:32:22.325Z,4.95
2023-01-03T08:34:50.869Z,4.43
2023-01-03T08:37:18.924Z,4.45
2023-01-03T08:39:51.820Z,5.57
2023-01-03T08:42:23.252Z,4.78
2023-01-03T08:44:57.934Z,4.35
2023-01-03T08:47:25.617Z,4.22
2023-01-03T08:49:53.220Z,3.65
2023-01-03T08:52:20.747Z,3.10
2023-01-03T08:54:48.298Z,4.50
2023-01-03T08:57:15.877Z,3.97
2023-01-03T08:59:43.402Z,3.15
2023-01-03T09:02:12.534Z,4.47
2023-01-03T09:04:40.242Z,3.10
2023-01-03T09:07:07.860Z,5.32
2023-01-03T09:09:35.534Z,4.53
2023-01-03T09:12:03.055Z,6.78
2023-01-03T09:14:31.045Z,4.13
2023-01-03T09:16:58.628Z,4.45
2023-01-03T09:19:27.612Z,4.97
2023-01-03T09:21:55.187Z,9.40
2023-01-03T09:24:22.780Z,7.93
2023-01-03T09:26:54.512Z,6.45
2023-01-03T09:29:22.765Z,8.93
2023-01-03T09:31:51.491Z,5.03
2023-01-03T09:34:19.551Z,4.82
2023-01-03T09:36:48.937Z,5.40
2023-01-03T09:39:16.472Z,8.60
2023-01-03T09:41:45.066Z,6.03
2023-01-03T09:44:12.881Z,15.20
2023-01-03T09:46:40.577Z,5.18
2023-01-03T09:49:08.290Z,6.32
2023-01-03T09:51:56.933Z,7.38
2023-01-03T09:54:48.378Z,4.90
2023-01-03T09:57:36.873Z,6.75
2023-01-03T10:00:29.421Z,5.55
2023-01-03T10:03:31.463Z,5.30
2023-01-03T10:06:13.679Z,3.80
2023-01-03T10:08:56.108Z,4.20
2023-01-03T10:11:36.909Z,6.38
2023-01-03T10:14:18.072Z,6.30
2023-01-03T10:16:56.848Z,6.57
2023-01-03T10:19:46.701Z,7.35
2023-01-03T10:22:18.937Z,6.90
2023-01-03T10:24:48.784Z,5.85
2023-01-03T10:27:21.541Z,5.28
2023-01-03T10:29:53.050Z,9.35
2023-01-03T10:32:37.829Z,4.85
2023-01-03T10:35:29.000Z,5.28
2023-01-03T10:37:57.840Z,6.32
2023-01-03T10:40:34.490Z,7.47
2023-01-03T10:43:10.861Z,3.45
2023-01-03T10:45:52.649Z,5.30
2023-01-03T10:48:20.250Z,5.45
2023-01-03T10:50:48.087Z,5.15
2023-01-03T10:53:20.841Z,2.15
2023-01-03T10:55:51.587Z,1.35
2023-01-03T10:58:28.066Z,3.00
2023-01-03T11:01:12.308Z,2.97
2023-01-03T11:03:51.036Z,3.70
2023-01-03T11:06:19.187Z,3.28
2023-01-03T11:08:48.872Z,2.70
2023-01-03T11:11:29.711Z,1.83
2023-01-03T11:14:19.838Z,4.28
2023-01-03T11:16:55.217Z,1.50
2023-01-03T11:19:27.891Z,1.48
2023-01-03T11:22:01.887Z,1.67
2023-01-03T11:24:57.705Z,2.80
2023-01-03T11:27:41.123Z,2.22
2023-01-03T11:30:25.168Z,3.85
2023-01-03T11:33:10.017Z,3.17
2023-01-03T11:36:09.535Z,1.52
2023-01-03T11:38:52.908Z,2.60
2023-01-03T11:41:36.761Z,2.83
2023-01-03T11:44:33.607Z,2.20
2023-01-03T11:47:16.913Z,1.75
2023-01-03T11:50:00.086Z,3.15
2023-01-03T11:52:31.138Z,8.63
2023-01-03T11:55:37.727Z,2.40
2023-01-03T11:58:23.610Z,4.50
2023-01-03T12:00:58.863Z,1.60
2023-01-03T12:03:44.499Z,2.03
2023-01-03T12:06:20.551Z,1.20
2023-01-03T12:09:07.276Z,2.65
2023-01-03T12:14:25.161Z,1.95
2023-01-03T12:16:57.591Z,1.45
2023-01-03T12:19:37.925Z,1.17
2023-01-03T12:22:14.112Z,4.13
2023-01-03T12:24:49.508Z,1.65
2023-01-03T12:27:23.967Z,1.40
2023-01-03T12:29:57.327Z,1.77
2023-01-03T12:35:17.825Z,1.70
2023-01-03T12:37:48.006Z,1.65
2023-01-03T12:40:22.487Z,1.52
2023-01-03T12:42:58.830Z,3.83
2023-01-03T12:45:41.720Z,1.85
2023-01-03T12:48:22.420Z,0.97
2023-01-03T12:50:54.485Z,0.80
2023-01-03T12:53:28.739Z,0.95
2023-01-03T12:56:22.882Z,1.95
2023-01-03T12:59:04.043Z,1.33
2023-01-03T13:01:40.749Z,1.00
2023-01-03T13:04:22.640Z,1.50
2023-01-03T13:06:56.753Z,1.08
2023-01-03T13:09:32.139Z,0.73
2023-01-03T13:12:04.542Z,1.60
2023-01-03T13:14:53.259Z,1.15
2023-01-03T13:17:22.674Z,2.05
2023-01-03T13:19:56.153Z,1.50
2023-01-03T13:25:46.731Z,4.78
2023-01-03T13:28:31.663Z,3.40
2023-01-03T13:31:48.028Z,1.13
2023-01-03T13:34:34.016Z,1.52
2023-01-03T13:37:18.820Z,1.45
2023-01-03T13:40:10.955Z,1.20
2023-01-03T13:42:40.183Z,1.80
2023-01-03T13:45:56.673Z,1.58
2023-01-03T13:48:27.210Z,1.27
2023-01-03T13:51:29.330Z,1.73
2023-01-03T13:54:00.345Z,0.63
2023-01-03T13:56:32.244Z,2.97
2023-01-03T13:59:12.157Z,2.15
2023-01-03T14:01:51.964Z,1.75
2023-01-03T14:04:36.145Z,1.38
2023-01-03T14:07:27.844Z,1.20
2023-01-03T14:10:25.319Z,1.75
2023-01-03T14:13:27.064Z,1.95
2023-01-03T14:16:12.108Z,2.00
2023-01-03T14:18:40.825Z,1.13
2023-01-03T14:21:15.625Z,1.15
2023-01-03T14:23:59.524Z,0.88
2023-01-03T14:26:28.679Z,1.00
2023-01-03T14:28:57.562Z,0.88
2023-01-03T14:31:28.175Z,0.70
2023-01-03T14:33:58.625Z,1.83
2023-01-03T14:36:26.698Z,0.98
2023-01-03T14:38:56.181Z,1.48
2023-01-03T14:41:30.370Z,0.60
2023-01-03T14:44:04.605Z,0.88
2023-01-03T14:46:32.980Z,1.73
2023-01-03T14:49:04.145Z,1.63
2023-01-03T14:51:34.276Z,2.40
2023-01-03T14:54:02.939Z,2.13
2023-01-03T14:56:31.411Z,2.85
2023-01-03T14:58:59.865Z,1.65
2023-01-03T15:01:30.063Z,1.88
2023-01-03T15:03:58.378Z,3.33
2023-01-03T15:06:28.420Z,3.90
2023-01-03T15:08:57.627Z,4.50
2023-01-03T15:11:31.033Z,3.33
2023-01-03T15:16:33.484Z,1.52
2023-01-03T15:19:07.533Z,2.15
2023-01-03T15:21:35.205Z,1.48
2023-01-03T15:24:02.980Z,2.88
2023-01-03T15:26:39.999Z,5.65
2023-01-03T15:29:13.471Z,7.05
2023-01-03T15:34:19.020Z,8.75
2023-01-03T15:36:52.748Z,8.43
2023-01-03T15:39:22.629Z,8.95
2023-01-03T15:42:42.836Z,5.28
2023-01-03T15:45:01.250Z,2.33
2023-01-03T15:47:32.208Z,2.90
2023-01-03T15:50:04.408Z,2.35
2023-01-03T15:52:31.947Z,2.50
2023-01-03T15:54:59.519Z,2.20
2023-01-03T15:57:31.380Z,2.15
2023-01-03T16:00:02.076Z,2.92
2023-01-03T16:05:01.421Z,2.50
2023-01-03T16:07:28.979Z,2.80
2023-01-03T16:09:56.807Z,3.33
2023-01-03T16:12:33.339Z,4.85
2023-01-03T16:15:01.692Z,13.45
2023-01-03T16:17:30.367Z,6.85
2023-01-03T16:20:00.561Z,8.57
2023-01-03T16:22:35.398Z,7.50
2023-01-03T16:25:03.811Z,6.57
2023-01-03T16:27:31.387Z,5.57
2023-01-03T16:29:59.190Z,5.97
2023-01-03T16:32:29.368Z,3.30
2023-01-03T16:35:00.642Z,5.45
2023-01-03T16:37:28.824Z,4.93
2023-01-03T16:39:56.446Z,20.15
2023-01-03T16:42:27.735Z,16.75
2023-01-03T16:44:55.914Z,5.38
2023-01-03T16:47:26.049Z,5.57
2023-01-03T16:49:57.519Z,3.40
2023-01-03T16:52:33.224Z,3.03
2023-01-03T16:55:05.155Z,3.97
2023-01-03T16:57:33.239Z,4.15
2023-01-03T17:00:00.766Z,2.65
2023-01-03T17:02:28.544Z,6.65
2023-01-03T17:04:56.283Z,6.55
2023-01-03T17:07:26.271Z,7.22
2023-01-03T17:09:53.917Z,7.70
2023-01-03T17:12:24.680Z,6.28
2023-01-03T17:14:52.809Z,8.57
2023-01-03T17:17:22.980Z,8.68
2023-01-03T17:20:06.908Z,8.98
2023-01-03T17:22:36.145Z,9.60
2023-01-03T17:25:03.889Z,9.95
2023-01-03T17:27:33.417Z,9.38
2023-01-03T17:30:03.422Z,11.23
2023-01-03T17:32:31.435Z,8.32
2023-01-03T17:34:59.168Z,10.32
2023-01-03T17:37:26.938Z,6.53
2023-01-03T17:39:58.077Z,7.15
2023-01-03T17:42:28.677Z,8.35
2023-01-03T17:45:14.044Z,8.95
2023-01-03T17:48:00.779Z,7.55
2023-01-03T17:50:29.800Z,6.60
2023-01-03T17:52:58.528Z,8.88
2023-01-03T17:55:29.462Z,9.38
2023-01-03T17:58:00.463Z,11.88
2023-01-03T18:00:30.535Z,11.50
2023-01-03T18:03:00.222Z,11.68
2023-01-03T18:05:29.783Z,9.07
2023-01-03T18:07:59.307Z,9.70
2023-01-03T18:10:33.831Z,12.52
2023-01-03T18:13:01.604Z,15.93
2023-01-03T18:15:29.307Z,12.48
2023-01-03T18:17:56.924Z,18.42
2023-01-03T18:20:26.481Z,17.55
2023-01-03T18:22:54.250Z,24.55
2023-01-03T18:25:24.645Z,27.45
2023-01-03T18:27:57.350Z,20.55
2023-01-03T18:30:25.117Z,15.98
2023-01-03T18:32:52.807Z,13.15
2023-01-03T18:35:28.294Z,13.32
2023-01-03T18:38:00.585Z,11.73
2023-01-03T18:40:28.275Z,11.27
2023-01-03T18:43:12.675Z,15.00
2023-01-03T18:45:41.723Z,13.90
2023-01-03T18:48:14.415Z,16.15
2023-01-03T18:50:42.468Z,9.73
2023-01-03T18:53:16.261Z,9.75
2023-01-03T18:55:44.111Z,11.40
2023-01-03T18:58:21.688Z,9.85
2023-01-03T19:00:49.284Z,8.63
2023-01-03T19:03:23.439Z,8.10
2023-01-03T19:05:51.545Z,13.50
2023-01-03T19:08:20.533Z,18.65
2023-01-03T19:10:48.452Z,10.18
2023-01-03T19:13:31.150Z,7.88
2023-01-03T19:15:58.918Z,8.87
2023-01-03T19:18:26.552Z,27.33
2023-01-03T19:20:54.217Z,12.68
2023-01-03T19:23:24.725Z,10.63
2023-01-03T19:25:52.506Z,9.10
2023-01-03T19:28:23.757Z,13.20
2023-01-03T19:30:52.999Z,9.30
2023-01-03T19:33:21.644Z,9.75
2023-01-03T19:35:50.133Z,11.40
2023-01-03T19:38:17.787Z,10.55
2023-01-03T19:40:46.154Z,11.15
2023-01-03T19:43:21.889Z,10.98
2023-01-03T19:45:50.100Z,12.70
2023-01-03T19:48:20.666Z,11.07
2023-01-03T19:50:49.585Z,12.88
2023-01-03T19:53:17.203Z,14.43
2023-01-03T19:55:47.467Z,13.07
2023-01-03T19:58:18.614Z,13.35
2023-01-03T20:00:47.955Z,13.65
2023-01-03T20:03:24.065Z,18.05
2023-01-03T20:05:51.880Z,16.23
2023-01-03T20:08:19.584Z,15.23
2023-01-03T20:10:47.326Z,13.82
2023-01-03T20:13:18.929Z,12.48
2023-01-03T20:15:48.223Z,12.85
2023-01-03T20:18:36.382Z,16.38
2023-01-03T20:21:07.866Z,13.88
2023-01-03T20:23:38.848Z,12.75
2023-01-03T20:26:07.312Z,14.38
2023-01-03T20:28:34.850Z,18.17
2023-01-03T20:31:03.738Z,15.75
2023-01-03T20:33:31.480Z,14.93
2023-01-03T20:36:11.620Z,13.95
2023-01-03T20:38:45.491Z,14.77
2023-01-03T20:41:15.454Z,12.27
2023-01-03T20:43:43.549Z,15.52
2023-01-03T20:46:17.480Z,12.73
2023-01-03T20:48:45.727Z,14.82
2023-01-03T20:51:14.672Z,11.60
2023-01-03T20:53:43.442Z,13.68
2023-01-03T20:56:13.191Z,14.27
2023-01-03T20:58:41.269Z,13.65
2023-01-03T21:01:09.265Z,13.27
2023-01-03T21:03:38.956Z,11.65
2023-01-03T21:06:18.605Z,12.98
2023-01-03T21:08:54.269Z,13.85
2023-01-03T21:11:25.510Z,13.40
2023-01-03T21:13:53.836Z,14.80
2023-01-03T21:16:29.744Z,16.00
2023-01-03T21:19:01.661Z,12.75
2023-01-03T21:21:31.875Z,16.45
2023-01-03T21:23:59.833Z,13.60
2023-01-03T21:26:27.428Z,11.45
2023-01-03T21:28:55.205Z,13.88
2023-01-03T21:31:23.999Z,15.55
2023-01-03T21:33:51.978Z,13.93
2023-01-03T21:36:24.329Z,12.23
2023-01-03T21:38:53.520Z,13.18
2023-01-03T21:41:22.900Z,12.10
2023-01-03T21:43:50.717Z,11.32
2023-01-03T21:46:20.808Z,12.52
2023-01-03T21:48:48.573Z,12.65
2023-01-03T21:51:24.722Z,12.70
2023-01-03T21:54:02.355Z,13.48
2023-01-03T21:56:29.946Z,13.05
2023-01-03T21:58:57.534Z,13.52
2023-01-03T22:01:25.703Z,12.65
2023-01-03T22:04:10.843Z,12.35
2023-01-03T22:06:39.349Z,14.63
2023-01-03T22:09:28.239Z,13.73
2023-01-03T22:11:55.815Z,13.60
2023-01-03T22:14:23.371Z,15.00
2023-01-03T22:16:51.114Z,18.90
2023-01-03T22:19:18.682Z,14.75
2023-01-03T22:21:46.215Z,14.52
2023-01-03T22:24:15.168Z,13.85
2023-01-03T22:26:42.761Z,14.68
2023-01-03T22:29:10.396Z,13.23
2023-01-03T22:31:38.107Z,17.13
2023-01-03T22:34:05.719Z,13.77
2023-01-03T22:36:33.255Z,15.88
2023-01-03T22:39:00.831Z,13.43
2023-01-03T22:41:30.153Z,14.88
2023-01-03T22:43:57.823Z,12.57
2023-01-03T22:46:25.645Z,13.73
2023-01-03T22:48:53.669Z,16.25
2023-01-03T22:51:21.762Z,13.15
2023-01-03T22:53:49.321Z,12.38
2023-01-03T22:56:18.401Z,12.73
2023-01-03T22:58:47.409Z,12.63
2023-01-03T23:01:18.039Z,10.90
2023-01-03T23:03:47.196Z,9.05
2023-01-03T23:06:17.603Z,8.63
2023-01-03T23:08:47.405Z,10.65
2023-01-03T23:11:34.932Z,10.55
2023-01-03T23:14:07.355Z,11.25
2023-01-03T23:16:35.547Z,11.75
2023-01-03T23:19:04.872Z,10.35
2023-01-03T23:21:33.162Z,9.80
2023-01-03T23:24:00.819Z,10.95
2023-01-03T23:26:28.454Z,11.15
2023-01-03T23:28:56.559Z,13.00
2023-01-03T23:31:27.166Z,14.02
2023-01-03T23:33:55.145Z,9.77
2023-01-03T23:36:22.788Z,10.57
2023-01-03T23:38:50.442Z,10.82
2023-01-03T23:41:19.659Z,10.18
2023-01-03T23:43:47.495Z,12.15
2023-01-03T23:46:19.947Z,9.73
2023-01-03T23:48:49.762Z,10.98
2023-01-03T23:51:17.471Z,11.38
2023-01-03T23:53:45.087Z,8.40
2023-01-03T23:56:14.741Z,8.85
2023-01-03T23:58:42.595Z,12.05
